Time;durP1;ratioP1;P1;durP2;ratioP2;P2;SDS_P1;SDS_P2;PMS_P1;PMS_P2;Temp;Humidity;BMP_temperature;BMP_pressure;BME280_temperature;BME280_humidity;BME280_pressure;Samples;Min_cycle;Max_cycle;Signal;HPM_P1;HPM_P2
2022/02/19 00:01:30;;;;;;;11.00;2.20;;;6.40;93.30;;;;;;5124016;27;20040;-69
2022/02/19 00:03:57;;;;;;;9.98;2.53;;;6.30;93.50;;;;;;5128136;27;20046;-69
2022/02/19 00:06:23;;;;;;;9.57;2.13;;;6.30;93.70;;;;;;5109083;27;20524;-69
2022/02/19 00:08:48;;;;;;;12.95;2.47;;;6.30;93.70;;;;;;5106140;27;20085;-69
2022/02/19 00:11:14;;;;;;;14.70;2.63;;;6.30;94.00;;;;;;5107877;27;20050;-68
2022/02/19 00:13:40;;;;;;;17.00;2.60;;;6.20;94.10;;;;;;5124991;27;20074;-68
2022/02/19 00:16:06;;;;;;;11.93;1.83;;;6.20;93.90;;;;;;5103960;27;20050;-68
2022/02/19 00:18:32;;;;;;;13.45;2.08;;;6.30;94.10;;;;;;5109264;27;20106;-69
2022/02/19 00:20:58;;;;;;;16.90;3.00;;;6.20;93.90;;;;;;5105144;27;20039;-69
2022/02/19 00:23:28;;;;;;;12.55;2.53;;;6.30;94.00;;;;;;5126336;27;20047;-68
2022/02/19 00:25:54;;;;;;;11.90;1.88;;;6.30;94.20;;;;;;5126691;27;20055;-68
2022/02/19 00:28:20;;;;;;;15.13;2.50;;;6.20;94.20;;;;;;5102978;27;20047;-69
2022/02/19 00:30:46;;;;;;;11.35;2.45;;;6.30;94.20;;;;;;5108698;27;20045;-68
2022/02/19 00:33:12;;;;;;;11.98;1.95;;;6.20;94.20;;;;;;5112863;27;20042;-68
2022/02/19 00:35:38;;;;;;;15.60;2.70;;;6.20;94.50;;;;;;5132228;27;20081;-68
2022/02/19 00:38:03;;;;;;;18.13;3.17;;;6.20;94.90;;;;;;5112483;27;20036;-68
2022/02/19 00:40:29;;;;;;;17.15;3.35;;;6.20;94.90;;;;;;5115847;27;20436;-68
2022/02/19 00:42:54;;;;;;;11.30;2.20;;;6.20;94.90;;;;;;5130647;27;20102;-69
2022/02/19 00:45:20;;;;;;;16.00;3.17;;;6.10;95.10;;;;;;5110471;27;20042;-68
2022/02/19 00:47:46;;;;;;;15.40;3.30;;;6.10;95.20;;;;;;5110478;27;20115;-68
2022/02/19 00:50:13;;;;;;;11.70;2.45;;;6.10;95.40;;;;;;5117905;27;20050;-67
2022/02/19 00:52:39;;;;;;;13.68;2.33;;;6.10;95.30;;;;;;5106543;27;20039;-67
2022/02/19 00:55:06;;;;;;;11.48;2.60;;;6.10;95.40;;;;;;5114947;27;20035;-67
2022/02/19 00:57:32;;;;;;;20.05;2.70;;;6.10;95.20;;;;;;5095273;27;20051;-67
2022/02/19 00:59:57;;;;;;;19.25;3.17;;;6.10;95.30;;;;;;5128833;27;20406;-67
2022/02/19 01:02:23;;;;;;;18.30;3.20;;;6.10;95.40;;;;;;5106426;27;20036;-67
2022/02/19 01:04:49;;;;;;;16.25;3.08;;;6.10;95.70;;;;;;5113701;27;20027;-67
2022/02/19 01:07:14;;;;;;;18.70;3.67;;;6.10;95.90;;;;;;5127422;27;20747;-68
2022/02/19 01:09:40;;;;;;;17.40;3.13;;;6.10;96.30;;;;;;5107396;27;20035;-68
2022/02/19 01:12:06;;;;;;;20.30;3.40;;;6.10;96.40;;;;;;5126437;27;20205;-67
2022/02/19 01:14:32;;;;;;;15.82;4.03;;;6.00;97.10;;;;;;5133586;27;20086;-67
2022/02/19 01:16:57;;;;;;;20.95;3.72;;;6.00;98.30;;;;;;5130182;27;20071;-67
2022/02/19 01:19:25;;;;;;;14.50;2.83;;;5.80;99.10;;;;;;5107208;27;20038;-67
2022/02/19 01:21:51;;;;;;;18.42;4.03;;;5.70;99.90;;;;;;5122900;27;20035;-67
2022/02/19 01:24:17;;;;;;;22.27;3.05;;;5.60;99.90;;;;;;5130312;27;20436;-67
2022/02/19 01:26:42;;;;;;;16.70;3.25;;;5.50;99.90;;;;;;5131431;27;20035;-68
2022/02/19 01:29:08;;;;;;;14.75;3.42;;;5.40;99.90;;;;;;5135369;27;20038;-67
2022/02/19 01:31:34;;;;;;;21.35;3.58;;;5.30;99.90;;;;;;5102661;27;20043;-67
2022/02/19 01:34:00;;;;;;;20.05;3.65;;;5.10;99.90;;;;;;5106682;27;20027;-67
2022/02/19 01:36:25;;;;;;;19.63;3.45;;;5.00;99.90;;;;;;5134905;27;20147;-67
2022/02/19 01:38:51;;;;;;;19.00;3.75;;;4.90;99.90;;;;;;5130585;27;20125;-67
2022/02/19 01:41:17;;;;;;;23.25;4.35;;;4.90;99.90;;;;;;5108219;27;20039;-66
2022/02/19 01:43:42;;;;;;;17.80;2.97;;;4.90;99.90;;;;;;5133534;27;20127;-66
2022/02/19 01:46:08;;;;;;;17.45;2.95;;;4.80;99.90;;;;;;5128980;27;20410;-67
2022/02/19 01:48:34;;;;;;;20.67;3.55;;;4.80;99.90;;;;;;5129979;27;20036;-68
2022/02/19 01:51:00;;;;;;;18.75;3.28;;;4.80;99.90;;;;;;5127765;27;20096;-67
2022/02/19 01:53:25;;;;;;;18.90;3.42;;;4.90;99.90;;;;;;5125473;27;20045;-67
2022/02/19 01:55:54;;;;;;;20.25;3.75;;;4.90;99.90;;;;;;5105388;27;20043;-66
2022/02/19 01:58:21;;;;;;;19.00;3.30;;;4.80;99.90;;;;;;5106696;27;20481;-66
2022/02/19 02:00:47;;;;;;;16.35;3.28;;;4.60;99.90;;;;;;5135497;27;20035;-66
2022/02/19 02:03:12;;;;;;;10.25;2.80;;;4.60;99.90;;;;;;5125825;27;20114;-66
2022/02/19 02:05:38;;;;;;;15.63;2.33;;;4.60;99.90;;;;;;5128415;27;20062;-66
2022/02/19 02:08:06;;;;;;;14.52;2.95;;;4.50;99.90;;;;;;5137140;27;20039;-66
2022/02/19 02:10:35;;;;;;;12.40;2.10;;;4.40;99.90;;;;;;5124891;27;20056;-66
2022/02/19 02:13:04;;;;;;;9.40;1.67;;;4.40;99.90;;;;;;5130385;27;20046;-65
2022/02/19 02:15:32;;;;;;;13.00;2.38;;;4.30;99.90;;;;;;5109569;27;20042;-66
2022/02/19 02:17:58;;;;;;;10.60;1.83;;;4.30;99.90;;;;;;5128878;27;20043;-66
2022/02/19 02:20:25;;;;;;;11.27;2.05;;;4.30;99.90;;;;;;5105762;27;20480;-66
2022/02/19 02:22:51;;;;;;;9.65;1.38;;;4.30;99.90;;;;;;5128536;27;20031;-66
2022/02/19 02:25:19;;;;;;;10.90;1.65;;;4.30;99.90;;;;;;5131643;27;20520;-66
2022/02/19 02:27:45;;;;;;;8.02;1.30;;;4.30;99.90;;;;;;5129010;27;20031;-67
2022/02/19 02:30:11;;;;;;;11.52;2.03;;;4.30;99.90;;;;;;5126865;27;20549;-66
2022/02/19 02:32:36;;;;;;;6.90;1.00;;;4.20;99.90;;;;;;5134606;27;20400;-66
2022/02/19 02:35:03;;;;;;;11.68;1.58;;;4.20;99.90;;;;;;5128599;27;20027;-67
2022/02/19 02:37:28;;;;;;;11.65;1.77;;;4.20;99.90;;;;;;5123789;27;20160;-67
2022/02/19 02:39:54;;;;;;;11.02;1.60;;;4.20;99.90;;;;;;5126834;27;20468;-66
2022/02/19 02:42:20;;;;;;;10.30;2.20;;;4.20;99.90;;;;;;5136571;27;20035;-66
2022/02/19 02:44:46;;;;;;;13.48;1.92;;;4.20;99.90;;;;;;5136401;27;20050;-66
2022/02/19 02:47:12;;;;;;;13.13;1.77;;;4.20;99.90;;;;;;5112704;27;20107;-67
2022/02/19 02:49:39;;;;;;;17.30;3.17;;;4.20;99.90;;;;;;5134214;27;20062;-66
2022/02/19 02:52:07;;;;;;;20.45;2.55;;;4.20;99.90;;;;;;5128157;27;20146;-66
2022/02/19 02:54:33;;;;;;;22.08;2.97;;;4.20;99.90;;;;;;5133185;27;20042;-66
2022/02/19 02:56:59;;;;;;;18.50;3.15;;;4.20;99.90;;;;;;5134348;27;20057;-66
2022/02/19 02:59:24;;;;;;;9.32;1.50;;;4.30;99.90;;;;;;5127590;27;20437;-65
2022/02/19 03:01:50;;;;;;;8.48;1.10;;;4.20;99.90;;;;;;5129410;27;20031;-66
2022/02/19 03:04:16;;;;;;;7.13;1.73;;;4.00;99.90;;;;;;5131869;27;20088;-66
2022/02/19 03:06:41;;;;;;;9.02;1.13;;;3.80;99.90;;;;;;5122511;27;20039;-66
2022/02/19 03:09:07;;;;;;;8.98;1.30;;;3.80;99.90;;;;;;5112552;27;20133;-67
2022/02/19 03:11:33;;;;;;;10.48;1.45;;;3.80;99.90;;;;;;5124891;27;20035;-67
2022/02/19 03:13:58;;;;;;;13.55;1.98;;;3.70;99.90;;;;;;5130375;27;20113;-66
2022/02/19 03:16:24;;;;;;;15.90;2.08;;;3.80;99.90;;;;;;5128311;27;20477;-66
2022/02/19 03:18:49;;;;;;;12.75;2.67;;;3.80;99.90;;;;;;5132035;27;20543;-66
2022/02/19 03:21:15;;;;;;;12.25;2.38;;;3.90;99.90;;;;;;5121209;27;20027;-66
2022/02/19 03:23:41;;;;;;;18.38;2.92;;;4.00;99.90;;;;;;5125260;27;20076;-66
2022/02/19 03:26:07;;;;;;;15.98;2.80;;;4.00;99.90;;;;;;5108806;27;20092;-66
2022/02/19 03:28:34;;;;;;;18.77;2.67;;;4.10;99.90;;;;;;5099867;27;20051;-66
2022/02/19 03:31:00;;;;;;;16.45;2.63;;;4.10;99.90;;;;;;5120244;27;20148;-66
2022/02/19 03:33:26;;;;;;;16.60;2.53;;;4.20;99.90;;;;;;5122048;27;20512;-66
2022/02/19 03:35:51;;;;;;;13.10;2.60;;;4.10;99.90;;;;;;5099047;27;20399;-66
2022/02/19 03:38:17;;;;;;;18.60;3.38;;;4.10;99.90;;;;;;5122261;27;20548;-66
2022/02/19 03:40:43;;;;;;;15.23;2.40;;;4.10;99.90;;;;;;5119572;27;20075;-66
2022/02/19 03:43:08;;;;;;;7.50;1.50;;;4.00;99.90;;;;;;5120793;27;20040;-66
2022/02/19 03:45:37;;;;;;;8.40;1.63;;;4.00;99.90;;;;;;5100989;28;20483;-65
2022/02/19 03:48:03;;;;;;;5.70;1.00;;;3.80;99.90;;;;;;5129211;27;20043;-66
2022/02/19 03:50:28;;;;;;;12.27;1.75;;;3.80;99.90;;;;;;5133393;27;20035;-66
2022/02/19 03:52:55;;;;;;;12.65;1.60;;;3.80;99.90;;;;;;5130937;27;20396;-66
2022/02/19 03:55:21;;;;;;;12.25;1.50;;;3.70;99.90;;;;;;5094503;28;20051;-66
2022/02/19 03:57:46;;;;;;;9.52;1.65;;;3.70;99.90;;;;;;5132563;27;20134;-66
2022/02/19 04:00:13;;;;;;;11.45;1.67;;;3.80;99.90;;;;;;5116824;27;20058;-66
2022/02/19 04:02:41;;;;;;;11.80;1.92;;;3.80;99.90;;;;;;5107344;27;20100;-66
2022/02/19 04:05:08;;;;;;;12.35;1.83;;;3.90;99.90;;;;;;5107922;27;20035;-66
2022/02/19 04:07:34;;;;;;;15.23;2.90;;;3.90;99.90;;;;;;5126942;27;20480;-66
2022/02/19 04:10:00;;;;;;;15.75;2.40;;;3.90;99.90;;;;;;5128843;27;20071;-66
2022/02/19 04:12:26;;;;;;;20.38;2.83;;;3.90;99.90;;;;;;5131271;27;20053;-66
2022/02/19 04:14:52;;;;;;;22.20;2.95;;;4.00;99.90;;;;;;5127767;27;20091;-65
2022/02/19 04:17:17;;;;;;;22.92;3.40;;;4.00;99.90;;;;;;5127755;27;20031;-65
2022/02/19 04:19:43;;;;;;;19.85;3.05;;;4.10;99.90;;;;;;5128839;27;20023;-65
2022/02/19 04:22:09;;;;;;;16.83;2.78;;;4.10;99.90;;;;;;5127413;27;20035;-65
2022/02/19 04:24:35;;;;;;;13.63;1.50;;;4.00;99.90;;;;;;5120852;27;20086;-65
2022/02/19 04:27:01;;;;;;;14.75;2.47;;;4.00;99.90;;;;;;5123271;28;20380;-65
2022/02/19 04:29:27;;;;;;;11.52;2.13;;;3.90;99.90;;;;;;5103455;27;20035;-65
2022/02/19 04:31:55;;;;;;;13.38;2.10;;;3.90;99.90;;;;;;5120579;27;20432;-66
2022/02/19 04:34:24;;;;;;;12.30;2.17;;;3.90;99.90;;;;;;5105634;27;20055;-66
2022/02/19 04:36:50;;;;;;;18.15;2.28;;;3.80;99.90;;;;;;5119875;27;20129;-66
2022/02/19 04:39:20;;;;;;;18.95;2.20;;;3.80;99.90;;;;;;5101170;28;20095;-66
2022/02/19 04:41:46;;;;;;;17.17;2.70;;;3.80;99.90;;;;;;5122139;27;20047;-64
2022/02/19 04:44:12;;;;;;;21.00;4.07;;;3.90;99.90;;;;;;5120859;27;20043;-66
2022/02/19 04:46:37;;;;;;;19.23;3.65;;;3.90;99.90;;;;;;5127537;27;20122;-65
2022/02/19 04:49:03;;;;;;;21.45;3.65;;;4.00;99.90;;;;;;5118795;27;20054;-64
2022/02/19 04:51:29;;;;;;;19.55;3.20;;;4.10;99.90;;;;;;5109627;27;20051;-64
2022/02/19 04:53:55;;;;;;;22.27;3.42;;;4.20;99.90;;;;;;5125661;27;20035;-65
2022/02/19 04:56:21;;;;;;;25.35;3.35;;;4.30;99.90;;;;;;5129476;27;20039;-65
2022/02/19 04:58:47;;;;;;;14.88;3.40;;;4.40;99.90;;;;;;5128334;27;20054;-65
2022/02/19 05:01:13;;;;;;;15.35;3.10;;;4.40;99.90;;;;;;5126107;27;20487;-65
2022/02/19 05:03:39;;;;;;;20.70;3.22;;;4.50;99.90;;;;;;5129196;27;20648;-66
2022/02/19 05:06:05;;;;;;;16.92;2.85;;;4.50;99.90;;;;;;5127426;27;20035;-65
2022/02/19 05:08:31;;;;;;;23.77;4.47;;;4.50;99.90;;;;;;5125084;27;20114;-66
2022/02/19 05:10:57;;;;;;;22.90;4.00;;;4.50;99.90;;;;;;5127061;27;20092;-66
2022/02/19 05:13:23;;;;;;;16.67;3.25;;;4.50;99.90;;;;;;5126349;27;20317;-66
2022/02/19 05:15:49;;;;;;;20.48;3.08;;;4.60;99.90;;;;;;5127892;27;20039;-66
2022/02/19 05:18:14;;;;;;;16.35;2.38;;;4.50;99.90;;;;;;5125685;27;20031;-66
2022/02/19 05:20:41;;;;;;;24.58;3.10;;;4.50;99.90;;;;;;5121356;27;20055;-66
2022/02/19 05:23:07;;;;;;;16.15;3.00;;;4.50;99.90;;;;;;5122699;27;20407;-66
2022/02/19 05:25:33;;;;;;;16.52;2.08;;;4.40;99.90;;;;;;5124262;27;20031;-66
2022/02/19 05:27:59;;;;;;;21.38;2.90;;;4.50;99.90;;;;;;5127745;27;20031;-66
2022/02/19 05:30:25;;;;;;;11.07;2.13;;;4.40;99.90;;;;;;5126605;27;20039;-67
2022/02/19 05:32:51;;;;;;;19.13;2.90;;;4.40;99.90;;;;;;5105362;27;20624;-67
2022/02/19 05:35:17;;;;;;;15.82;2.28;;;4.30;99.90;;;;;;5122344;27;20118;-67
2022/02/19 05:37:43;;;;;;;10.95;1.73;;;4.30;99.90;;;;;;5128544;27;20362;-67
2022/02/19 05:40:09;;;;;;;12.73;2.80;;;4.30;99.90;;;;;;5104827;27;20078;-67
2022/02/19 05:42:35;;;;;;;15.70;2.40;;;4.20;99.90;;;;;;5126487;27;20411;-67
2022/02/19 05:45:01;;;;;;;20.17;2.75;;;4.20;99.90;;;;;;5126266;27;20043;-67
2022/02/19 05:47:27;;;;;;;14.63;2.00;;;4.10;99.90;;;;;;5105624;27;20051;-67
2022/02/19 05:49:52;;;;;;;13.90;2.60;;;4.10;99.90;;;;;;5120227;27;20031;-67
2022/02/19 05:52:18;;;;;;;18.88;2.38;;;4.10;99.90;;;;;;5126354;27;20097;-67
2022/02/19 05:54:45;;;;;;;15.13;2.72;;;4.10;99.90;;;;;;5102462;27;20110;-67
2022/02/19 05:57:11;;;;;;;15.38;2.03;;;4.10;99.90;;;;;;5123782;27;20047;-67
2022/02/19 05:59:37;;;;;;;13.23;2.90;;;4.10;99.90;;;;;;5125824;27;20038;-67
2022/02/19 06:02:03;;;;;;;12.48;1.90;;;4.20;99.90;;;;;;5102270;27;20126;-67
2022/02/19 06:04:29;;;;;;;16.17;2.67;;;4.10;99.90;;;;;;5125665;27;20991;-67
2022/02/19 06:06:55;;;;;;;16.27;2.13;;;4.10;99.90;;;;;;5119395;27;20070;-67
2022/02/19 06:09:21;;;;;;;15.38;2.58;;;4.10;99.90;;;;;;5123159;27;20084;-67
2022/02/19 06:11:47;;;;;;;13.13;1.83;;;4.20;99.90;;;;;;5103503;27;20422;-68
2022/02/19 06:14:13;;;;;;;13.75;2.15;;;4.10;99.90;;;;;;5125797;27;20114;-67
2022/02/19 06:16:39;;;;;;;10.60;1.55;;;4.20;99.90;;;;;;5104689;27;20055;-67
2022/02/19 06:19:04;;;;;;;14.38;2.17;;;4.00;99.90;;;;;;5126304;27;20039;-66
2022/02/19 06:21:30;;;;;;;13.55;2.28;;;4.00;99.90;;;;;;5102265;27;20047;-67
2022/02/19 06:23:56;;;;;;;13.52;1.80;;;3.90;99.90;;;;;;5102997;27;20127;-67
2022/02/19 06:26:22;;;;;;;7.05;1.73;;;3.90;99.90;;;;;;5091635;27;20050;-67
2022/02/19 06:28:47;;;;;;;9.63;2.17;;;3.80;99.90;;;;;;5109539;27;20622;-66
2022/02/19 06:31:13;;;;;;;12.88;2.50;;;3.90;99.90;;;;;;5101350;27;20051;-66
2022/02/19 06:33:39;;;;;;;12.38;1.88;;;3.90;99.90;;;;;;5103746;27;20039;-66
2022/02/19 06:36:05;;;;;;;15.05;2.28;;;3.90;99.90;;;;;;5103569;27;20173;-66
2022/02/19 06:38:32;;;;;;;11.85;1.90;;;3.90;99.90;;;;;;5119043;27;20055;-66
2022/02/19 06:40:58;;;;;;;11.60;1.50;;;3.90;99.90;;;;;;5106819;27;20051;-67
2022/02/19 06:43:24;;;;;;;12.45;2.05;;;3.90;99.90;;;;;;5108588;27;20055;-67
2022/02/19 06:45:49;;;;;;;19.45;2.20;;;3.80;99.90;;;;;;5105173;27;20510;-67
2022/02/19 06:48:15;;;;;;;11.77;2.58;;;3.80;99.90;;;;;;5126001;27;20039;-67
2022/02/19 06:50:41;;;;;;;15.40;2.45;;;3.80;99.90;;;;;;5128204;27;20057;-67
2022/02/19 06:53:06;;;;;;;13.68;2.53;;;3.70;99.90;;;;;;5121797;27;20046;-67
2022/02/19 06:55:32;;;;;;;24.02;3.05;;;3.70;99.90;;;;;;5122056;27;20031;-67
2022/02/19 06:57:58;;;;;;;14.63;2.05;;;3.70;99.90;;;;;;5106089;27;20067;-67
2022/02/19 07:00:24;;;;;;;8.73;1.52;;;3.70;99.90;;;;;;5086735;27;20035;-67
2022/02/19 07:02:49;;;;;;;12.30;1.92;;;3.80;99.90;;;;;;5124607;27;20058;-67
2022/02/19 07:05:15;;;;;;;14.15;1.58;;;3.80;99.90;;;;;;5101300;27;20046;-67
2022/02/19 07:07:41;;;;;;;8.13;1.77;;;3.80;99.90;;;;;;5121434;27;20042;-67
2022/02/19 07:10:09;;;;;;;12.30;1.90;;;3.90;99.90;;;;;;5098648;27;20082;-68
2022/02/19 07:12:35;;;;;;;15.65;2.50;;;3.90;99.90;;;;;;5111981;27;20134;-67
2022/02/19 07:15:01;;;;;;;14.25;2.13;;;3.90;99.90;;;;;;5120537;27;20146;-67
2022/02/19 07:17:26;;;;;;;13.45;2.03;;;3.90;99.90;;;;;;5128167;27;20053;-67
2022/02/19 07:19:52;;;;;;;13.38;2.70;;;3.90;99.90;;;;;;5107121;27;20095;-67
2022/02/19 07:22:18;;;;;;;10.27;2.35;;;4.00;99.90;;;;;;5102001;27;20050;-67
2022/02/19 07:24:43;;;;;;;11.35;1.38;;;4.00;99.90;;;;;;5121417;27;20035;-67
2022/02/19 07:27:09;;;;;;;13.32;2.10;;;4.10;99.90;;;;;;5123389;27;20031;-67
2022/02/19 07:29:35;;;;;;;13.48;2.30;;;4.10;99.90;;;;;;5126880;27;20046;-67
2022/02/19 07:32:01;;;;;;;12.60;2.20;;;4.10;99.90;;;;;;5119781;27;20046;-67
2022/02/19 07:34:27;;;;;;;16.27;2.22;;;4.20;99.90;;;;;;5105616;27;20055;-67
2022/02/19 07:36:52;;;;;;;18.20;2.85;;;4.20;99.90;;;;;;5082514;27;20095;-67
2022/02/19 07:39:18;;;;;;;12.48;2.25;;;4.30;99.90;;;;;;5120852;27;20059;-67
2022/02/19 07:41:44;;;;;;;17.10;2.60;;;4.40;99.90;;;;;;5104085;28;20094;-67
2022/02/19 07:44:10;;;;;;;16.38;2.53;;;4.50;99.90;;;;;;5096800;27;20095;-67
2022/02/19 07:46:35;;;;;;;15.68;2.50;;;4.50;99.90;;;;;;5104374;27;20171;-67
2022/02/19 07:58:18;;;;;;;9.55;1.35;;;4.50;99.90;;;;;;5121698;27;20039;-67
2022/02/19 08:00:01;;;;;;;12.90;2.57;;;4.60;99.90;;;;;;5107566;28;20041;-67
2022/02/19 08:02:26;;;;;;;9.43;1.40;;;4.60;99.90;;;;;;5121908;27;20367;-67
2022/02/19 08:04:52;;;;;;;10.85;1.98;;;4.70;99.90;;;;;;5104901;27;20391;-67
2022/02/19 08:07:18;;;;;;;14.18;2.63;;;4.70;99.90;;;;;;5104463;28;20071;-67
2022/02/19 08:09:43;;;;;;;9.88;1.55;;;4.70;99.90;;;;;;5107635;28;20035;-67
2022/02/19 08:12:09;;;;;;;12.50;2.20;;;4.80;99.90;;;;;;5127255;27;20043;-67
2022/02/19 08:14:35;;;;;;;14.63;2.17;;;4.80;99.90;;;;;;5079530;27;20586;-67
2022/02/19 08:17:01;;;;;;;19.25;2.53;;;4.90;99.90;;;;;;5118042;27;20126;-67
2022/02/19 08:19:26;;;;;;;17.88;1.95;;;5.00;99.90;;;;;;5096344;27;20047;-67
2022/02/19 08:21:52;;;;;;;9.38;1.63;;;5.00;99.90;;;;;;5109732;27;20030;-67
2022/02/19 08:24:18;;;;;;;16.52;2.35;;;5.10;99.90;;;;;;5112399;27;20035;-67
2022/02/19 08:26:43;;;;;;;6.00;1.10;;;5.10;99.90;;;;;;5130962;27;20087;-67
2022/02/19 08:29:09;;;;;;;8.55;1.42;;;4.90;99.90;;;;;;5107044;27;20055;-67
2022/02/19 08:31:36;;;;;;;9.65;1.60;;;4.60;99.90;;;;;;5129500;27;20391;-67
2022/02/19 08:34:02;;;;;;;8.93;1.20;;;4.30;99.90;;;;;;5114684;27;20510;-66
2022/02/19 08:36:28;;;;;;;9.77;1.27;;;4.10;99.90;;;;;;5121853;27;20042;-66
2022/02/19 08:38:54;;;;;;;7.65;1.35;;;3.90;99.90;;;;;;5137281;27;20096;-66
2022/02/19 08:41:20;;;;;;;10.07;1.27;;;3.80;99.90;;;;;;5132521;27;20103;-66
2022/02/19 08:43:46;;;;;;;11.10;1.70;;;3.80;99.90;;;;;;5131474;27;20122;-66
2022/02/19 08:46:12;;;;;;;10.23;2.45;;;3.80;99.90;;;;;;5132676;27;20043;-66
2022/02/19 08:48:37;;;;;;;11.80;1.58;;;3.90;99.90;;;;;;5128741;27;20031;-66
2022/02/19 08:51:03;;;;;;;11.15;1.92;;;4.10;99.90;;;;;;5133196;27;20123;-66
2022/02/19 08:53:29;;;;;;;8.73;1.52;;;4.30;99.90;;;;;;5134331;27;20395;-66
2022/02/19 08:55:57;;;;;;;9.73;2.33;;;4.50;99.90;;;;;;5094174;28;20080;-67
2022/02/19 08:58:22;;;;;;;18.10;1.85;;;4.80;99.90;;;;;;5133524;27;20078;-67
2022/02/19 09:00:48;;;;;;;10.48;1.83;;;5.00;99.90;;;;;;5128483;27;20035;-67
2022/02/19 09:03:14;;;;;;;10.45;2.67;;;5.30;99.90;;;;;;5129811;27;20087;-67
2022/02/19 09:05:41;;;;;;;14.80;2.45;;;5.80;99.90;;;;;;5130439;27;20058;-66
2022/02/19 09:08:07;;;;;;;10.23;2.00;;;6.40;99.90;;;;;;5112096;27;20059;-67
2022/02/19 09:10:33;;;;;;;15.30;2.00;;;6.30;99.90;;;;;;5129022;27;20168;-67
2022/02/19 09:12:59;;;;;;;10.77;1.38;;;6.10;99.90;;;;;;5130908;27;20118;-67
2022/02/19 09:15:26;;;;;;;11.27;2.13;;;5.90;99.90;;;;;;5107055;27;20041;-67
2022/02/19 09:17:51;;;;;;;11.55;1.80;;;5.80;99.90;;;;;;5121610;27;20058;-67
2022/02/19 09:20:19;;;;;;;8.52;1.30;;;5.90;99.90;;;;;;5119382;27;20440;-67
2022/02/19 09:22:45;;;;;;;11.60;2.58;;;6.40;99.90;;;;;;5108016;27;20188;-67
2022/02/19 09:25:11;;;;;;;19.25;2.33;;;6.40;99.90;;;;;;5140460;27;20087;-67
2022/02/19 09:27:38;;;;;;;12.57;1.85;;;6.40;99.90;;;;;;5103286;27;20376;-67
2022/02/19 09:30:06;;;;;;;12.75;1.95;;;6.50;99.90;;;;;;5087677;27;20051;-67
2022/02/19 09:32:32;;;;;;;11.85;1.98;;;7.30;99.90;;;;;;5102960;27;20062;-67
2022/02/19 09:34:58;;;;;;;16.90;2.22;;;8.30;99.90;;;;;;5093379;28;20096;-67
2022/02/19 09:37:27;;;;;;;13.05;2.63;;;9.00;99.90;;;;;;5126275;27;20043;-67
2022/02/19 09:39:55;;;;;;;10.52;1.92;;;8.70;99.90;;;;;;5099408;28;20034;-67
2022/02/19 09:42:20;;;;;;;16.27;2.03;;;8.20;99.90;;;;;;5103726;27;20092;-67
2022/02/19 09:44:47;;;;;;;16.10;2.33;;;8.00;99.90;;;;;;5131985;27;20034;-67
2022/02/19 09:47:16;;;;;;;12.20;2.25;;;8.50;99.90;;;;;;5080685;27;20118;-67
2022/02/19 09:49:42;;;;;;;13.32;1.98;;;8.50;99.90;;;;;;5115167;27;20051;-67
2022/02/19 09:52:08;;;;;;;16.27;3.05;;;8.10;99.90;;;;;;5120471;27;20473;-67
2022/02/19 09:54:33;;;;;;;20.85;2.30;;;7.70;99.90;;;;;;5112028;27;20126;-68
2022/02/19 09:56:59;;;;;;;15.88;2.50;;;7.40;99.90;;;;;;5131338;27;20083;-68
2022/02/19 09:59:26;;;;;;;15.40;2.17;;;7.60;99.90;;;;;;5116438;27;20467;-68
2022/02/19 10:02:06;;;;;;;10.55;1.98;;;8.60;99.90;;;;;;5122137;27;20447;-68
2022/02/19 10:04:32;;;;;;;20.98;3.20;;;9.00;99.90;;;;;;5094605;27;20472;-68
2022/02/19 10:06:59;;;;;;;13.60;2.65;;;8.90;99.90;;;;;;5132746;27;20099;-68
2022/02/19 10:09:27;;;;;;;16.10;3.08;;;8.80;99.90;;;;;;5124594;27;20035;-68
2022/02/19 10:11:53;;;;;;;15.98;2.13;;;8.30;99.90;;;;;;5107157;27;20122;-67
2022/02/19 10:14:31;;;;;;;15.48;2.55;;;7.90;99.90;;;;;;5130209;27;20130;-67
2022/02/19 10:17:16;;;;;;;12.60;2.22;;;7.50;99.90;;;;;;5117318;27;20055;-68
2022/02/19 10:19:50;;;;;;;12.45;2.38;;;7.30;99.90;;;;;;5128714;27;20031;-68
2022/02/19 10:22:18;;;;;;;15.40;2.17;;;7.20;99.90;;;;;;5133915;27;20039;-68
2022/02/19 10:24:49;;;;;;;13.05;2.10;;;7.10;99.90;;;;;;5128641;27;20054;-68
2022/02/19 10:27:15;;;;;;;15.60;2.58;;;7.10;99.90;;;;;;5130092;27;20048;-68
2022/02/19 10:29:54;;;;;;;18.85;2.88;;;7.10;99.90;;;;;;5112555;27;20068;-68
2022/02/19 10:32:24;;;;;;;15.32;2.70;;;7.30;99.90;;;;;;5122678;27;20566;-68
2022/02/19 10:35:02;;;;;;;15.38;2.35;;;7.40;99.90;;;;;;5131485;27;20041;-68
2022/02/19 10:37:28;;;;;;;12.43;2.58;;;7.80;99.90;;;;;;5127451;27;20039;-68
2022/02/19 10:39:58;;;;;;;14.60;2.20;;;7.60;99.90;;;;;;5121548;27;20100;-68
2022/02/19 10:42:32;;;;;;;17.70;2.78;;;7.50;99.90;;;;;;5133698;27;20069;-69
2022/02/19 10:44:58;;;;;;;15.17;2.77;;;7.40;99.90;;;;;;5112232;27;20043;-69
2022/02/19 10:47:26;;;;;;;16.20;2.75;;;7.30;99.90;;;;;;5120927;27;20043;-68
2022/02/19 10:50:05;;;;;;;14.07;2.38;;;7.40;99.90;;;;;;5102153;27;20071;-68
2022/02/19 10:52:30;;;;;;;16.40;2.58;;;7.80;99.90;;;;;;5114631;27;20058;-68
2022/02/19 10:55:10;;;;;;;12.18;2.13;;;7.70;99.90;;;;;;5112254;27;20125;-68
2022/02/19 10:57:38;;;;;;;16.42;2.83;;;7.50;99.90;;;;;;5111354;27;20905;-67
2022/02/19 11:00:18;;;;;;;13.13;2.30;;;7.20;99.90;;;;;;5113420;27;20049;-68
2022/02/19 11:02:49;;;;;;;11.93;2.53;;;7.00;99.90;;;;;;5110109;27;20050;-68
2022/02/19 11:05:16;;;;;;;11.35;1.35;;;6.90;99.90;;;;;;5106284;27;20127;-68
2022/02/19 11:07:43;;;;;;;10.95;1.38;;;6.80;99.90;;;;;;5110711;27;20063;-68
2022/02/19 11:10:12;;;;;;;9.02;1.42;;;7.00;99.70;;;;;;5132097;27;20074;-68
2022/02/19 11:12:38;;;;;;;9.40;1.45;;;6.80;99.90;;;;;;5127974;27;20034;-69
2022/02/19 11:15:06;;;;;;;8.73;1.50;;;6.80;99.90;;;;;;5108587;27;20039;-68
2022/02/19 11:17:34;;;;;;;11.77;1.85;;;6.60;99.90;;;;;;5127038;27;20024;-68
2022/02/19 11:20:03;;;;;;;14.50;2.65;;;6.60;99.90;;;;;;5110723;27;20418;-68
2022/02/19 11:22:30;;;;;;;9.30;1.73;;;6.60;99.90;;;;;;5129517;27;20039;-68
2022/02/19 11:25:01;;;;;;;11.35;1.23;;;6.60;99.90;;;;;;5118779;27;20032;-68
2022/02/19 11:27:29;;;;;;;9.13;1.77;;;6.60;99.90;;;;;;5127137;27;20042;-68
2022/02/19 11:30:01;;;;;;;9.73;1.77;;;6.90;99.90;;;;;;5122818;27;20070;-68
2022/02/19 11:32:29;;;;;;;9.45;1.50;;;8.10;99.90;;;;;;5109147;27;20051;-68
2022/02/19 11:34:54;;;;;;;10.90;1.63;;;9.10;99.00;;;;;;5117745;27;20104;-68
2022/02/19 11:37:22;;;;;;;10.68;2.10;;;9.50;96.10;;;;;;5127789;27;20490;-68
2022/02/19 11:40:12;;;;;;;11.52;1.73;;;9.40;96.40;;;;;;5107691;27;20051;-68
2022/02/19 11:42:45;;;;;;;16.17;3.22;;;9.10;95.10;;;;;;5111111;28;20510;-68
2022/02/19 11:45:22;;;;;;;11.60;2.35;;;8.70;97.00;;;;;;5117001;28;20182;-68
2022/02/19 11:47:50;;;;;;;11.27;2.20;;;8.80;96.90;;;;;;5108107;27;20051;-69
2022/02/19 11:50:22;;;;;;;12.88;2.10;;;8.50;97.60;;;;;;5106757;27;20051;-69
2022/02/19 11:53:13;;;;;;;11.63;1.83;;;8.10;98.00;;;;;;5107279;28;20051;-69
2022/02/19 11:55:41;;;;;;;11.27;2.10;;;8.20;98.70;;;;;;5137104;27;20038;-69
2022/02/19 11:58:11;;;;;;;9.52;1.75;;;8.60;98.60;;;;;;5131816;27;20459;-68
2022/02/19 12:00:53;;;;;;;9.98;1.60;;;9.30;99.10;;;;;;5110623;27;20112;-68
2022/02/19 12:03:23;;;;;;;9.95;1.48;;;9.60;95.50;;;;;;5109278;27;20075;-68
2022/02/19 12:06:24;;;;;;;8.65;1.42;;;9.90;97.80;;;;;;5108565;27;20046;-68
2022/02/19 12:08:49;;;;;;;11.18;1.80;;;10.20;94.30;;;;;;5116017;27;20229;-68
2022/02/19 12:11:23;;;;;;;9.50;1.67;;;11.00;96.70;;;;;;5129108;27;20131;-68
2022/02/19 12:13:59;;;;;;;9.40;1.70;;;11.20;93.50;;;;;;5114396;27;20515;-68
2022/02/19 12:16:28;;;;;;;8.75;1.70;;;10.80;92.60;;;;;;5130047;27;20050;-68
2022/02/19 12:19:04;;;;;;;8.75;1.77;;;10.30;95.30;;;;;;5097285;27;20085;-68
2022/02/19 12:21:39;;;;;;;10.30;1.55;;;9.80;92.90;;;;;;5128174;27;20092;-68
2022/02/19 12:24:19;;;;;;;7.88;1.50;;;9.40;92.80;;;;;;5132942;27;20514;-68
2022/02/19 12:27:05;;;;;;;9.60;1.67;;;8.90;91.80;;;;;;5120180;27;20038;-68
2022/02/19 12:29:39;;;;;;;7.82;1.67;;;8.60;91.30;;;;;;5112441;27;20150;-68
2022/02/19 12:32:17;;;;;;;8.55;1.73;;;8.30;92.00;;;;;;5105021;27;20429;-68
2022/02/19 12:34:54;;;;;;;8.88;1.88;;;8.20;91.40;;;;;;5136748;27;20031;-68
2022/02/19 12:37:21;;;;;;;9.05;1.23;;;8.00;92.90;;;;;;5093032;27;20606;-69
2022/02/19 12:39:55;;;;;;;9.35;1.60;;;7.90;93.70;;;;;;5112590;27;20560;-69
2022/02/19 12:42:23;;;;;;;7.07;1.27;;;7.80;93.80;;;;;;5114619;27;20099;-68
2022/02/19 12:45:06;;;;;;;10.35;1.45;;;7.80;94.20;;;;;;5116599;27;20139;-68
2022/02/19 12:47:36;;;;;;;9.95;1.73;;;7.70;94.50;;;;;;5115130;27;20432;-69
2022/02/19 12:50:03;;;;;;;11.32;1.27;;;7.70;94.60;;;;;;5116588;27;20042;-69
2022/02/19 12:52:29;;;;;;;7.95;1.60;;;7.70;94.40;;;;;;5101189;27;20101;-69
2022/02/19 12:54:55;;;;;;;9.65;1.63;;;7.80;94.10;;;;;;5118143;27;20137;-69
2022/02/19 12:57:22;;;;;;;9.68;1.67;;;7.90;93.90;;;;;;5132239;27;20040;-69